^^
Datos históricos de la estación: Murcia-Puente Tocinos
Diario Informe para Mayo 20, 2019 Unidades:  Métrico    Inglés   Ambas
Diario Semanal Mensual Anual Configurable
  Máximo: Mínimo: Media:
Temperatura: 25.1 °C 14.4 °C 19.5 °C
Punto de rocio: 15.3 °C 4.1 °C 9.8 °C
Humedad: 83% 29% 55%
Velocidad viento: 17.2km/h 0.0km/h 7.3km/h
Racha viento: 30.6km/h - -
Viento- - ESE
Presión: 1012.2 hPa 1009.4 hPa -
Precipitación: 0.0 mm    
Historical Graphs
 
 
Tabla de datos para Mayo 20, 2019
Hora Temperatura Punto de rocio Presión Viento Velocidad viento Racha viento Humedad Intensidad lluvia(por hora) Nubes
00:04 18.9 °C 4.3 °C 1010.3 hPa NNW 3.2 km/h 3.9 km/h 38% 0.0 mm CLR
00:09 18.9 °C 4.3 °C 1010.3 hPa NNW 2.9 km/h 3.9 km/h 38% 0.0 mm CLR
00:14 18.8 °C 4.9 °C 1010.3 hPa WNW 2.9 km/h 7.6 km/h 40% 0.0 mm CLR
00:19 18.7 °C 4.8 °C 1010.3 hPa West 4.7 km/h 7.4 km/h 40% 0.0 mm CLR
00:24 18.7 °C 4.1 °C 1010.3 hPa West 4.7 km/h 3.7 km/h 38% 0.0 mm CLR
00:29 18.7 °C 4.8 °C 1010.3 hPa West 4.7 km/h   40% 0.0 mm CLR
00:34 18.9 °C 4.3 °C 1010.2 hPa West 2.9 km/h 4.7 km/h 38% 0.0 mm CLR
00:39 19.1 °C 4.4 °C 1010.2 hPa West 2.9 km/h 5.6 km/h 38% 0.0 mm CLR
00:44 19.2 °C 4.5 °C 1010.2 hPa West 2.9 km/h 3.7 km/h 38% 0.0 mm CLR
00:49 19.2 °C 4.5 °C 1010.3 hPa West 2.3 km/h   38% 0.0 mm CLR
00:54 19.2 °C 5.3 °C 1010.3 hPa NNW 2.3 km/h 6.4 km/h 40% 0.0 mm CLR
00:59 18.9 °C 5.3 °C 1010.3 hPa NW 2.3 km/h 7.4 km/h 41% 0.0 mm CLR
01:04 18.7 °C 5.2 °C 1010.4 hPa NNW 2.9 km/h 3.7 km/h 41% 0.0 mm CLR
01:09 18.4 °C 5.2 °C 1010.4 hPa NNW 2.9 km/h 3.7 km/h 42% 0.0 mm CLR
01:14 18.3 °C 5.2 °C 1010.4 hPa NNW 2.9 km/h   42% 0.0 mm CLR
01:19 18.3 °C 5.2 °C 1010.3 hPa Calm     42% 0.0 mm CLR
01:24 18.2 °C 5.1 °C 1010.3 hPa Calm   9.3 km/h 42% 0.0 mm CLR
01:29 18.2 °C 5.1 °C 1010.3 hPa ENE 2.9 km/h 9.3 km/h 42% 0.0 mm CLR
01:34 18.0 °C 5.2 °C 1010.3 hPa ENE 2.9 km/h 5.6 km/h 43% 0.0 mm CLR
01:39 17.9 °C 5.4 °C 1010.3 hPa NE 3.2 km/h 4.7 km/h 44% 0.0 mm CLR
01:44 17.8 °C 5.4 °C 1010.3 hPa NE 3.2 km/h   44% 0.0 mm CLR
01:49 17.7 °C 5.3 °C 1010.4 hPa NE 2.3 km/h   44% 0.0 mm CLR
01:54 17.7 °C 5.6 °C 1010.4 hPa NE 2.3 km/h   45% 0.0 mm CLR
01:59 17.7 °C 6.2 °C 1010.4 hPa Calm     47% 0.0 mm CLR
02:04 17.6 °C 6.4 °C 1010.4 hPa Calm   3.7 km/h 48% 0.0 mm CLR
02:09 17.6 °C 6.8 °C 1010.4 hPa NE 2.3 km/h 3.7 km/h 49% 0.0 mm CLR
02:14 17.6 °C 7.1 °C 1010.4 hPa NE 2.3 km/h 5.0 km/h 50% 0.0 mm CLR
02:19 17.5 °C 6.9 °C 1010.3 hPa NE 2.3 km/h 3.7 km/h 50% 0.0 mm CLR
02:24 17.4 °C 6.9 °C 1010.3 hPa NE 2.3 km/h   50% 0.0 mm CLR
02:29 17.4 °C 8.3 °C 1010.3 hPa Calm   3.9 km/h 55% 0.0 mm CLR
02:34 17.3 °C 8.4 °C 1010.1 hPa Calm   3.9 km/h 56% 0.0 mm CLR
02:39 17.3 °C 9.7 °C 1010.1 hPa NE 2.9 km/h 3.7 km/h 61% 0.0 mm CLR
02:44 17.2 °C 8.3 °C 1010.1 hPa NE 2.9 km/h 5.0 km/h 56% 0.0 mm CLR
02:49 17.1 °C 7.7 °C 1010.0 hPa NE 2.3 km/h 3.9 km/h 54% 0.0 mm CLR
02:54 16.9 °C 7.3 °C 1010.0 hPa NE 2.3 km/h 5.0 km/h 53% 0.0 mm CLR
02:59 16.8 °C 7.2 °C 1010.0 hPa NE 3.2 km/h 3.7 km/h 53% 0.0 mm CLR
03:04 16.8 °C 7.4 °C 1009.9 hPa NE 3.2 km/h 3.9 km/h 54% 0.0 mm CLR
03:09 16.8 °C 7.7 °C 1009.9 hPa NE 2.9 km/h 4.7 km/h 55% 0.0 mm CLR
03:14 16.8 °C 7.4 °C 1009.9 hPa NE 2.9 km/h 5.6 km/h 54% 0.0 mm CLR
03:19 16.7 °C 6.2 °C 1009.8 hPa NE 3.2 km/h 3.7 km/h 50% 0.0 mm CLR
03:24 16.6 °C 5.2 °C 1009.8 hPa NE 3.2 km/h 5.6 km/h 47% 0.0 mm CLR
03:29 16.7 °C 5.6 °C 1009.8 hPa ENE 2.9 km/h 5.6 km/h 48% 0.0 mm CLR
03:34 16.7 °C 5.6 °C 1009.9 hPa NNE 2.9 km/h 5.6 km/h 48% 0.0 mm CLR
03:39 16.6 °C 7.2 °C 1009.9 hPa NE 3.9 km/h 7.4 km/h 54% 0.0 mm CLR
03:44 16.6 °C 6.7 °C 1009.9 hPa ENE 3.9 km/h 3.7 km/h 52% 0.0 mm CLR
03:49 16.4 °C 5.1 °C 1009.7 hPa East 3.2 km/h 7.4 km/h 47% 0.0 mm CLR
03:54 16.3 °C 4.3 °C 1009.7 hPa East 3.2 km/h 3.9 km/h 45% 0.0 mm CLR
03:59 16.3 °C 4.7 °C 1009.7 hPa East 2.9 km/h 3.7 km/h 46% 0.0 mm CLR
04:04 16.2 °C 4.6 °C 1009.7 hPa East 2.9 km/h   46% 0.0 mm CLR
04:09 16.2 °C 4.9 °C 1009.7 hPa Calm     47% 0.0 mm CLR
04:14 16.3 °C 6.1 °C 1009.7 hPa Calm   3.7 km/h 51% 0.0 mm CLR
04:19 16.2 °C 5.8 °C 1009.4 hPa Calm   3.7 km/h 50% 0.0 mm CLR
04:24 16.1 °C 5.9 °C 1009.4 hPa Calm     51% 0.0 mm CLR
04:29 15.9 °C 5.2 °C 1009.4 hPa Calm     49% 0.0 mm CLR
04:34 15.8 °C 5.7 °C 1009.4 hPa Calm     51% 0.0 mm CLR
04:39 15.8 °C 6.2 °C 1009.4 hPa Calm   3.7 km/h 53% 0.0 mm CLR
04:44 15.8 °C 6.5 °C 1009.4 hPa Calm     54% 0.0 mm CLR
04:49 15.9 °C 6.9 °C 1009.4 hPa Calm     55% 0.0 mm CLR
04:54 15.9 °C 7.4 °C 1009.4 hPa Calm   5.6 km/h 57% 0.0 mm CLR
04:59 15.9 °C 7.9 °C 1009.4 hPa West 2.9 km/h 5.0 km/h 59% 0.0 mm CLR
05:04 15.9 °C 7.1 °C 1009.7 hPa SW 2.9 km/h 9.3 km/h 56% 0.0 mm CLR
05:09 15.9 °C 6.9 °C 1009.7 hPa West 4.7 km/h 5.6 km/h 55% 0.0 mm CLR
05:14 15.9 °C 6.9 °C 1009.7 hPa West 4.7 km/h 3.7 km/h 55% 0.0 mm CLR
05:19 15.9 °C 6.6 °C 1009.6 hPa West 2.3 km/h   54% 0.0 mm CLR
05:24 15.9 °C 6.6 °C 1009.6 hPa South 2.3 km/h 5.0 km/h 54% 0.0 mm CLR
05:29 15.8 °C 6.8 °C 1009.6 hPa SSE 2.3 km/h 5.6 km/h 55% 0.0 mm CLR
05:34 15.8 °C 6.8 °C 1009.6 hPa SSE 2.3 km/h 4.7 km/h 55% 0.0 mm CLR
05:39 15.7 °C 6.9 °C 1009.6 hPa SSE 2.9 km/h 3.7 km/h 56% 0.0 mm CLR
05:44 15.6 °C 6.6 °C 1009.6 hPa South 2.9 km/h 13.0 km/h 55% 0.0 mm CLR
05:49 14.9 °C 6.2 °C 1009.7 hPa South 6.4 km/h 11.1 km/h 56% 0.0 mm CLR
05:54 14.7 °C 6.3 °C 1009.7 hPa SW 6.4 km/h 8.7 km/h 57% 0.0 mm CLR
05:59 14.7 °C 6.3 °C 1009.7 hPa SW 7.6 km/h 11.1 km/h 57% 0.0 mm CLR
06:04 14.8 °C 6.3 °C 1009.7 hPa SSW 7.6 km/h 10.3 km/h 57% 0.0 mm CLR
06:09 14.8 °C 6.3 °C 1009.7 hPa SSW 8.4 km/h 7.4 km/h 57% 0.0 mm CLR
06:14 14.8 °C 6.1 °C 1009.7 hPa SSW 8.4 km/h 11.1 km/h 56% 0.0 mm CLR
06:19 14.9 °C 6.2 °C 1009.8 hPa WSW 6.9 km/h 7.4 km/h 56% 0.0 mm CLR
06:24 14.9 °C 6.2 °C 1009.8 hPa SW 6.9 km/h 7.4 km/h 56% 0.0 mm CLR
06:29 15.0 °C 6.3 °C 1009.8 hPa South 5.0 km/h 9.3 km/h 56% 0.0 mm CLR
06:34 15.0 °C 6.0 °C 1009.9 hPa SSE 5.0 km/h 7.4 km/h 55% 0.0 mm CLR
06:39 15.0 °C 6.3 °C 1009.9 hPa SE 5.8 km/h 7.4 km/h 56% 0.0 mm CLR
06:44 15.0 °C 6.3 °C 1009.9 hPa South 5.8 km/h 7.4 km/h 56% 0.0 mm CLR
06:49 14.9 °C 6.2 °C 1010.0 hPa SE 5.8 km/h 5.6 km/h 56% 0.0 mm CLR
06:54 15.0 °C 6.3 °C 1010.0 hPa SSE 5.8 km/h 7.4 km/h 56% 0.0 mm CLR
06:59 14.9 °C 6.2 °C 1010.0 hPa SE 3.9 km/h 7.4 km/h 56% 0.0 mm CLR
07:04 14.8 °C 6.1 °C 1010.1 hPa SE 3.9 km/h 5.6 km/h 56% 0.0 mm CLR
07:09 14.7 °C 6.3 °C 1010.1 hPa SE 3.2 km/h 4.7 km/h 57% 0.0 mm CLR
07:14 14.6 °C 6.2 °C 1010.1 hPa SE 3.2 km/h 5.6 km/h 57% 0.0 mm CLR
07:19 14.6 °C 6.4 °C 1010.3 hPa SE 2.9 km/h 6.4 km/h 58% 0.0 mm CLR
07:24 14.4 °C 6.0 °C 1010.3 hPa SE 2.9 km/h 7.4 km/h 57% 0.0 mm CLR
07:29 14.4 °C 6.2 °C 1010.3 hPa SSE 4.7 km/h 7.4 km/h 58% 0.0 mm CLR
07:34 14.4 °C 6.2 °C 1010.6 hPa SSE 4.7 km/h 5.6 km/h 58% 0.0 mm CLR
07:39 14.6 °C 6.2 °C 1010.6 hPa SE 5.0 km/h 7.4 km/h 57% 0.0 mm CLR
07:44 14.8 °C 6.3 °C 1010.6 hPa SE 5.0 km/h   57% 0.0 mm CLR
07:49 15.1 °C 6.9 °C 1010.8 hPa ENE 2.9 km/h 3.7 km/h 58% 0.0 mm CLR
07:54 15.2 °C 7.0 °C 1010.8 hPa North 2.9 km/h 3.7 km/h 58% 0.0 mm CLR
07:59 15.4 °C 7.2 °C 1010.8 hPa NNW 2.3 km/h 5.6 km/h 58% 0.0 mm CLR
08:04 15.5 °C 7.5 °C 1010.9 hPa NNW 2.3 km/h 3.7 km/h 59% 0.0 mm CLR
08:09 15.7 °C 7.7 °C 1010.9 hPa NNW 2.9 km/h 1.9 km/h 59% 0.0 mm CLR
08:14 16.1 °C 7.8 °C 1010.9 hPa NNW 2.9 km/h   58% 0.0 mm CLR
08:19 16.4 °C 7.6 °C 1011.1 hPa Calm   5.0 km/h 56% 0.0 mm CLR
08:24 16.5 °C 7.4 °C 1011.1 hPa Calm   3.7 km/h 55% 0.0 mm CLR
08:29 16.7 °C 7.6 °C 1011.1 hPa ESE 2.9 km/h 4.7 km/h 55% 0.0 mm CLR
08:34 16.9 °C 7.8 °C 1011.0 hPa ESE 2.9 km/h 3.7 km/h 55% 0.0 mm CLR
08:39 17.0 °C 7.6 °C 1011.0 hPa SE 2.9 km/h 5.6 km/h 54% 0.0 mm CLR
08:44 17.2 °C 7.8 °C 1011.0 hPa SSE 2.9 km/h 6.9 km/h 54% 0.0 mm CLR
08:49 17.2 °C 7.8 °C 1011.2 hPa SSW 3.2 km/h 6.4 km/h 54% 0.0 mm CLR
08:54 17.1 °C 7.7 °C 1011.2 hPa SSE 3.2 km/h 5.6 km/h 54% 0.0 mm CLR
08:59 17.2 °C 7.8 °C 1011.2 hPa SE 3.9 km/h 7.4 km/h 54% 0.0 mm CLR
09:04 17.3 °C 7.9 °C 1011.2 hPa SSE 3.9 km/h 7.4 km/h 54% 0.0 mm CLR
09:09 17.4 °C 8.0 °C 1011.2 hPa SSE 5.0 km/h 7.4 km/h 54% 0.0 mm CLR
09:14 17.6 °C 8.2 °C 1011.2 hPa SSE 5.0 km/h 7.6 km/h 54% 0.0 mm CLR
09:19 17.7 °C 8.3 °C 1011.2 hPa South 4.7 km/h 7.4 km/h 54% 0.0 mm CLR
09:24 17.9 °C 8.7 °C 1011.2 hPa South 4.7 km/h 5.6 km/h 55% 0.0 mm CLR
09:29 18.2 °C 8.7 °C 1011.2 hPa SSW 3.2 km/h 8.7 km/h 54% 0.0 mm CLR
09:34 18.4 °C 8.9 °C 1011.4 hPa SE 3.2 km/h 9.3 km/h 54% 0.0 mm CLR
09:39 18.4 °C 9.2 °C 1011.4 hPa South 5.0 km/h 9.3 km/h 55% 0.0 mm CLR
09:44 18.4 °C 9.2 °C 1011.4 hPa SSE 5.0 km/h 9.3 km/h 55% 0.0 mm CLR
09:49 18.4 °C 9.4 °C 1011.5 hPa SSE 6.9 km/h 11.9 km/h 56% 0.0 mm CLR
09:54 18.5 °C 9.6 °C 1011.5 hPa SE 6.9 km/h 5.6 km/h 56% 0.0 mm CLR
09:59 18.8 °C 9.8 °C 1011.5 hPa SSW 5.0 km/h 7.4 km/h 56% 0.0 mm CLR
10:04 18.9 °C 9.7 °C 1011.5 hPa WSW 5.0 km/h 5.8 km/h 55% 0.0 mm CLR
10:09 19.1 °C 9.8 °C 1011.5 hPa SSW 5.0 km/h 7.4 km/h 55% 0.0 mm CLR
10:14 19.3 °C 10.1 °C 1011.5 hPa SSE 5.0 km/h 3.7 km/h 55% 0.0 mm CLR
10:19 19.8 °C 10.2 °C 1011.5 hPa WNW 3.2 km/h 5.6 km/h 54% 0.0 mm CLR
10:24 20.3 °C 10.1 °C 1011.5 hPa NE 3.2 km/h 5.6 km/h 52% 0.0 mm CLR
10:29 20.5 °C 9.7 °C 1011.5 hPa NNW 3.2 km/h 9.3 km/h 50% 0.0 mm CLR
10:34 20.5 °C 10.0 °C 1011.4 hPa NNE 3.2 km/h 7.4 km/h 51% 0.0 mm CLR
10:39 20.3 °C 9.6 °C 1011.4 hPa NE 5.8 km/h 11.1 km/h 50% 0.0 mm CLR
10:44 20.1 °C 9.7 °C 1011.4 hPa ENE 5.8 km/h 9.5 km/h 51% 0.0 mm CLR
10:49 20.2 °C 10.0 °C 1011.4 hPa NE 5.8 km/h 7.4 km/h 52% 0.0 mm CLR
10:54 20.4 °C 9.9 °C 1011.4 hPa East 5.8 km/h 9.3 km/h 51% 0.0 mm CLR
10:59 20.8 °C 10.0 °C 1011.4 hPa East 4.7 km/h 9.3 km/h 50% 0.0 mm CLR
11:04 20.9 °C 9.8 °C 1011.5 hPa NE 4.7 km/h 9.3 km/h 49% 0.0 mm CLR
11:09 20.9 °C 9.5 °C 1011.5 hPa West 5.0 km/h 5.6 km/h 48% 0.0 mm CLR
11:14 21.1 °C 9.7 °C 1011.5 hPa NNE 5.0 km/h 9.3 km/h 48% 0.0 mm CLR
11:19 21.0 °C 9.6 °C 1011.4 hPa NE 3.9 km/h 6.9 km/h 48% 0.0 mm CLR
11:24 21.1 °C 9.9 °C 1011.4 hPa NNE 3.9 km/h 8.7 km/h 49% 0.0 mm CLR
11:29 21.0 °C 9.6 °C 1011.4 hPa ENE 6.4 km/h 13.0 km/h 48% 0.0 mm CLR
11:34 21.1 °C 9.9 °C 1011.3 hPa NNE 6.4 km/h 7.6 km/h 49% 0.0 mm CLR
11:39 21.3 °C 9.8 °C 1011.3 hPa ENE 6.4 km/h 11.1 km/h 48% 0.0 mm CLR
11:44 21.6 °C 9.8 °C 1011.3 hPa NNE 6.4 km/h 11.1 km/h 47% 0.0 mm CLR
11:49 21.7 °C 9.9 °C 1011.3 hPa ENE 6.9 km/h 14.8 km/h 47% 0.0 mm CLR
11:54 21.9 °C 9.4 °C 1011.3 hPa ESE 6.9 km/h 9.3 km/h 45% 0.0 mm CLR
11:59 21.9 °C 9.1 °C 1011.3 hPa ENE 7.6 km/h 7.4 km/h 44% 0.0 mm CLR
12:04 22.1 °C 9.6 °C 1011.2 hPa NNW 7.6 km/h 11.1 km/h 45% 0.0 mm CLR
12:09 22.3 °C 8.4 °C 1011.2 hPa ESE 6.4 km/h 9.3 km/h 41% 0.0 mm CLR
12:14 22.4 °C 7.8 °C 1011.2 hPa North 6.4 km/h 8.7 km/h 39% 0.0 mm CLR
12:19 22.6 °C 7.9 °C 1011.3 hPa East 6.9 km/h 9.3 km/h 39% 0.0 mm CLR
12:24 22.8 °C 8.1 °C 1011.3 hPa ENE 6.9 km/h 7.4 km/h 39% 0.0 mm CLR
12:29 22.9 °C 7.8 °C 1011.3 hPa West 6.9 km/h 9.3 km/h 38% 0.0 mm CLR
12:34 23.1 °C 8.4 °C 1011.2 hPa NNE 6.9 km/h 14.8 km/h 39% 0.0 mm CLR
12:39 22.9 °C 8.2 °C 1011.2 hPa NE 6.9 km/h 11.1 km/h 39% 0.0 mm CLR
12:44 22.9 °C 7.8 °C 1011.2 hPa SE 6.9 km/h 14.8 km/h 38% 0.0 mm CLR
12:49 23.1 °C 8.0 °C 1011.0 hPa NE 7.6 km/h 14.8 km/h 38% 0.0 mm CLR
12:54 23.1 °C 7.2 °C 1011.0 hPa WNW 7.6 km/h 9.3 km/h 36% 0.0 mm CLR
12:59 23.3 °C 7.4 °C 1011.0 hPa ENE 7.6 km/h 12.2 km/h 36% 0.0 mm CLR
13:04 23.3 °C 6.9 °C 1011.0 hPa NE 7.6 km/h 14.8 km/h 35% 0.0 mm CLR
13:09 23.2 °C 6.1 °C 1011.0 hPa NE 10.0 km/h 11.1 km/h 33% 0.0 mm CLR
13:14 23.3 °C 6.9 °C 1011.0 hPa NNE 10.0 km/h 8.4 km/h 35% 0.0 mm CLR
13:19 23.7 °C 6.0 °C 1010.8 hPa NE 6.4 km/h 9.3 km/h 32% 0.0 mm CLR
13:24 23.9 °C 5.7 °C 1010.8 hPa NE 6.4 km/h 5.6 km/h 31% 0.0 mm CLR
13:29 24.3 °C 6.6 °C 1010.8 hPa East 4.7 km/h 9.3 km/h 32% 0.0 mm CLR
13:34 24.6 °C 6.8 °C 1010.7 hPa NE 4.7 km/h 10.0 km/h 32% 0.0 mm CLR
13:39 24.6 °C 7.3 °C 1010.7 hPa NNE 5.8 km/h 13.7 km/h 33% 0.0 mm CLR
13:44 24.4 °C 6.6 °C 1010.7 hPa NNE 5.8 km/h 5.8 km/h 32% 0.0 mm CLR
13:49 24.7 °C 6.4 °C 1010.4 hPa NNE 6.4 km/h 14.8 km/h 31% 0.0 mm CLR
13:54 24.8 °C 5.6 °C 1010.4 hPa NNW 6.4 km/h 11.1 km/h 29% 0.0 mm CLR
13:59 25.0 °C 5.7 °C 1010.4 hPa ENE 9.5 km/h 16.7 km/h 29% 0.0 mm CLR
14:04 25.1 °C 6.3 °C 1010.3 hPa North 9.5 km/h 9.3 km/h 30% 0.0 mm CLR
14:09 25.0 °C 10.8 °C 1010.3 hPa NE 9.5 km/h 24.1 km/h 41% 0.0 mm CLR
14:14 24.6 °C 10.4 °C 1010.3 hPa NNE 9.5 km/h 17.2 km/h 41% 0.0 mm CLR
14:19 24.3 °C 10.2 °C 1010.4 hPa NNE 11.1 km/h 22.0 km/h 41% 0.0 mm CLR
14:24 24.2 °C 10.5 °C 1010.4 hPa East 11.1 km/h 20.4 km/h 42% 0.0 mm CLR
14:29 24.2 °C 11.5 °C 1010.4 hPa East 14.0 km/h 25.9 km/h 45% 0.0 mm CLR
14:34 24.3 °C 11.6 °C 1010.3 hPa NE 14.0 km/h 30.6 km/h 45% 0.0 mm CLR
14:39 24.2 °C 12.5 °C 1010.3 hPa ESE 14.0 km/h 20.4 km/h 48% 0.0 mm CLR
14:44 23.8 °C 12.1 °C 1010.3 hPa NE 14.0 km/h 22.2 km/h 48% 0.0 mm CLR
14:49 23.5 °C 12.5 °C 1010.3 hPa ESE 15.6 km/h 24.1 km/h 50% 0.0 mm CLR
14:54 23.3 °C 11.7 °C 1010.3 hPa East 15.6 km/h 20.4 km/h 48% 0.0 mm CLR
14:59 23.4 °C 11.8 °C 1010.3 hPa East 17.2 km/h 20.4 km/h 48% 0.0 mm CLR
15:04 23.7 °C 11.7 °C 1010.2 hPa NW 17.2 km/h 12.2 km/h 47% 0.0 mm CLR
15:09 23.8 °C 11.5 °C 1010.2 hPa NE 12.2 km/h 25.9 km/h 46% 0.0 mm CLR
15:14 23.8 °C 10.8 °C 1010.2 hPa NE 12.2 km/h 24.1 km/h 44% 0.0 mm CLR
15:19 23.9 °C 11.6 °C 1010.2 hPa East 17.2 km/h 16.7 km/h 46% 0.0 mm CLR
15:24 24.2 °C 11.8 °C 1010.2 hPa ESE 17.2 km/h 21.7 km/h 46% 0.0 mm CLR
15:29 23.9 °C 11.6 °C 1010.2 hPa ESE 13.7 km/h 25.9 km/h 46% 0.0 mm CLR
15:34 23.8 °C 11.5 °C 1010.1 hPa East 13.7 km/h 24.1 km/h 46% 0.0 mm CLR
15:39 23.7 °C 11.1 °C 1010.1 hPa ESE 16.4 km/h 25.9 km/h 45% 0.0 mm CLR
15:44 23.8 °C 11.5 °C 1010.1 hPa SE 16.4 km/h 22.2 km/h 46% 0.0 mm CLR
15:49 23.6 °C 11.3 °C 1010.1 hPa SE 15.6 km/h 22.2 km/h 46% 0.0 mm CLR
15:54 23.7 °C 11.1 °C 1010.1 hPa SE 15.6 km/h 13.0 km/h 45% 0.0 mm CLR
15:59 23.9 °C 11.6 °C 1010.1 hPa ESE 12.2 km/h 18.5 km/h 46% 0.0 mm CLR
16:04 24.0 °C 10.7 °C 1009.9 hPa ESE 12.2 km/h 24.1 km/h 43% 0.0 mm CLR
16:09 23.9 °C 11.2 °C 1009.9 hPa East 14.0 km/h 17.2 km/h 45% 0.0 mm CLR
16:14 23.9 °C 10.9 °C 1009.9 hPa ESE 14.0 km/h 18.5 km/h 44% 0.0 mm CLR
16:19 23.8 °C 10.8 °C 1009.9 hPa East 12.2 km/h 20.4 km/h 44% 0.0 mm CLR
16:24 23.6 °C 10.9 °C 1009.9 hPa ESE 12.2 km/h 20.4 km/h 45% 0.0 mm CLR
16:29 23.8 °C 11.2 °C 1009.9 hPa ESE 12.2 km/h 22.2 km/h 45% 0.0 mm CLR
16:34 23.7 °C 11.4 °C 1009.9 hPa SE 12.2 km/h 20.4 km/h 46% 0.0 mm CLR
16:39 23.6 °C 11.6 °C 1009.9 hPa ESE 13.7 km/h 19.8 km/h 47% 0.0 mm CLR
16:44 23.4 °C 11.8 °C 1009.9 hPa ESE 13.7 km/h 16.7 km/h 48% 0.0 mm CLR
16:49 23.3 °C 12.0 °C 1010.0 hPa East 13.0 km/h 13.0 km/h 49% 0.0 mm CLR
16:54 23.3 °C 12.3 °C 1010.0 hPa ESE 13.0 km/h 16.1 km/h 50% 0.0 mm CLR
16:59 23.4 °C 12.4 °C 1010.0 hPa SE 10.0 km/h 17.2 km/h 50% 0.0 mm CLR
17:04 23.3 °C 12.6 °C 1010.0 hPa ESE 10.0 km/h 16.7 km/h 51% 0.0 mm CLR
17:09 23.2 °C 12.5 °C 1010.0 hPa East 10.3 km/h 14.8 km/h 51% 0.0 mm CLR
17:14 23.2 °C 12.5 °C 1010.0 hPa ESE 10.3 km/h 14.8 km/h 51% 0.0 mm CLR
17:19 23.1 °C 12.1 °C 1010.0 hPa East 8.7 km/h 13.0 km/h 50% 0.0 mm CLR
17:24 23.1 °C 12.1 °C 1010.0 hPa East 8.7 km/h 13.0 km/h 50% 0.0 mm CLR
17:29 23.0 °C 12.6 °C 1010.0 hPa East 8.4 km/h 9.3 km/h 52% 0.0 mm CLR
17:34 22.8 °C 12.7 °C 1009.9 hPa ESE 8.4 km/h 13.0 km/h 53% 0.0 mm CLR
17:39 22.7 °C 12.9 °C 1009.9 hPa ESE 8.4 km/h 10.0 km/h 54% 0.0 mm CLR
17:44 22.6 °C 13.4 °C 1009.9 hPa NE 8.4 km/h 20.4 km/h 56% 0.0 mm CLR
17:49 22.3 °C 13.4 °C 1009.9 hPa NNE 10.3 km/h 11.9 km/h 57% 0.0 mm CLR
17:54 22.1 °C 13.4 °C 1009.9 hPa ENE 10.3 km/h 18.5 km/h 58% 0.0 mm CLR
17:59 21.9 °C 13.5 °C 1009.9 hPa NE 11.9 km/h 21.7 km/h 59% 0.0 mm CLR
18:04 21.8 °C 13.7 °C 1010.0 hPa ENE 11.9 km/h 24.1 km/h 60% 0.0 mm CLR
18:09 21.7 °C 13.8 °C 1010.0 hPa North 13.7 km/h 16.7 km/h 61% 0.0 mm CLR
18:14 21.6 °C 13.8 °C 1010.0 hPa NE 13.7 km/h 14.8 km/h 61% 0.0 mm CLR
18:19 21.6 °C 14.0 °C 1010.1 hPa NE 11.9 km/h 24.1 km/h 62% 0.0 mm CLR
18:24 21.3 °C 13.9 °C 1010.1 hPa NE 11.9 km/h 25.9 km/h 63% 0.0 mm CLR
18:29 21.2 °C 14.1 °C 1010.1 hPa ENE 16.1 km/h 20.4 km/h 64% 0.0 mm CLR
18:34 21.2 °C 14.1 °C 1010.0 hPa NE 16.1 km/h 18.0 km/h 64% 0.0 mm CLR
18:39 21.0 °C 14.2 °C 1010.0 hPa NE 14.8 km/h 16.7 km/h 65% 0.0 mm CLR
18:44 21.0 °C 14.2 °C 1010.0 hPa NE 14.8 km/h 22.5 km/h 65% 0.0 mm CLR
18:49 20.9 °C 14.1 °C 1010.1 hPa NE 14.0 km/h 20.4 km/h 65% 0.0 mm CLR
18:54 20.9 °C 14.1 °C 1010.1 hPa NNE 14.0 km/h 16.7 km/h 65% 0.0 mm CLR
18:59 20.8 °C 14.0 °C 1010.1 hPa NNE 13.0 km/h 20.4 km/h 65% 0.0 mm CLR
19:04 20.7 °C 14.1 °C 1010.1 hPa NE 13.0 km/h 20.9 km/h 66% 0.0 mm CLR
19:09 20.7 °C 14.1 °C 1010.1 hPa NE 12.2 km/h 18.5 km/h 66% 0.0 mm CLR
19:14 20.7 °C 14.1 °C 1010.1 hPa NE 12.2 km/h 22.2 km/h 66% 0.0 mm CLR
19:19 20.6 °C 14.3 °C 1009.9 hPa East 13.7 km/h 24.1 km/h 67% 0.0 mm CLR
19:24 20.6 °C 14.5 °C 1009.9 hPa NE 13.7 km/h 28.2 km/h 68% 0.0 mm CLR
19:29 20.4 °C 14.3 °C 1009.9 hPa NNE 16.1 km/h 19.0 km/h 68% 0.0 mm CLR
19:34 20.4 °C 14.5 °C 1010.0 hPa NNE 16.1 km/h 22.2 km/h 69% 0.0 mm CLR
19:39 20.3 °C 14.4 °C 1010.0 hPa ENE 13.7 km/h 24.1 km/h 69% 0.0 mm CLR
19:44 20.3 °C 14.7 °C 1010.0 hPa NE 13.7 km/h 17.2 km/h 70% 0.0 mm CLR
19:49 20.3 °C 14.7 °C 1010.0 hPa ENE 13.7 km/h 16.7 km/h 70% 0.0 mm CLR
19:54 20.2 °C 14.8 °C 1010.0 hPa NNE 13.7 km/h 18.3 km/h 71% 0.0 mm CLR
19:59 20.2 °C 14.8 °C 1010.0 hPa NE 11.1 km/h 16.7 km/h 71% 0.0 mm CLR
20:04 20.1 °C 14.7 °C 1010.1 hPa ENE 11.1 km/h 14.8 km/h 71% 0.0 mm CLR
20:09 20.1 °C 14.9 °C 1010.1 hPa NNE 11.9 km/h 14.8 km/h 72% 0.0 mm CLR
20:14 20.1 °C 14.9 °C 1010.1 hPa NE 11.9 km/h 16.1 km/h 72% 0.0 mm CLR
20:19 20.1 °C 14.9 °C 1010.3 hPa NE 10.3 km/h 16.7 km/h 72% 0.0 mm CLR
20:24 19.9 °C 14.7 °C 1010.3 hPa ENE 10.3 km/h 16.7 km/h 72% 0.0 mm CLR
20:29 19.9 °C 14.9 °C 1010.3 hPa NNE 10.3 km/h 18.5 km/h 73% 0.0 mm CLR
20:34 19.9 °C 14.9 °C 1010.4 hPa ENE 10.3 km/h 16.7 km/h 73% 0.0 mm CLR
20:39 19.9 °C 14.9 °C 1010.4 hPa NE 11.1 km/h 15.6 km/h 73% 0.0 mm CLR
20:44 19.8 °C 15.1 °C 1010.4 hPa NE 11.1 km/h 16.7 km/h 74% 0.0 mm CLR
20:49 19.7 °C 15.2 °C 1010.6 hPa NE 12.2 km/h 16.7 km/h 75% 0.0 mm CLR
20:54 19.7 °C 15.2 °C 1010.6 hPa NE 12.2 km/h 20.4 km/h 75% 0.0 mm CLR
20:59 19.6 °C 15.1 °C 1010.6 hPa NE 11.9 km/h 20.4 km/h 75% 0.0 mm CLR
21:04 19.6 °C 15.1 °C 1010.8 hPa NNE 11.9 km/h 22.2 km/h 75% 0.0 mm CLR
21:09 19.4 °C 15.1 °C 1010.8 hPa NE 13.0 km/h 18.5 km/h 76% 0.0 mm CLR
21:14 19.4 °C 15.1 °C 1010.8 hPa NE 13.0 km/h 16.7 km/h 76% 0.0 mm CLR
21:19 19.4 °C 15.1 °C 1010.8 hPa ENE 13.0 km/h 16.7 km/h 76% 0.0 mm CLR
21:24 19.3 °C 14.9 °C 1010.8 hPa NNE 13.0 km/h 20.4 km/h 76% 0.0 mm CLR
21:29 19.3 °C 14.9 °C 1010.8 hPa NE 11.1 km/h 18.5 km/h 76% 0.0 mm CLR
21:34 19.2 °C 14.9 °C 1010.8 hPa ENE 11.1 km/h 14.8 km/h 76% 0.0 mm CLR
21:39 19.2 °C 14.9 °C 1010.8 hPa NE 10.3 km/h 14.8 km/h 76% 0.0 mm CLR
21:44 19.1 °C 14.8 °C 1010.8 hPa NNE 10.3 km/h 11.9 km/h 76% 0.0 mm CLR
21:49 19.1 °C 14.9 °C 1010.9 hPa NE 8.7 km/h 11.1 km/h 77% 0.0 mm CLR
21:54 18.9 °C 14.8 °C 1010.9 hPa NE 8.7 km/h 14.8 km/h 77% 0.0 mm CLR
21:59 18.9 °C 15.0 °C 1010.9 hPa NE 10.0 km/h 13.0 km/h 78% 0.0 mm CLR
22:04 18.8 °C 14.9 °C 1011.2 hPa ENE 10.0 km/h 11.1 km/h 78% 0.0 mm CLR
22:09 18.7 °C 15.0 °C 1011.2 hPa NNE 8.7 km/h 13.0 km/h 79% 0.0 mm CLR
22:14 18.7 °C 15.0 °C 1011.2 hPa NNE 8.7 km/h 11.1 km/h 79% 0.0 mm CLR
22:19 18.6 °C 14.9 °C 1011.3 hPa NE 9.5 km/h 13.0 km/h 79% 0.0 mm CLR
22:24 18.6 °C 14.9 °C 1011.3 hPa NNE 9.5 km/h 11.1 km/h 79% 0.0 mm CLR
22:29 18.6 °C 15.1 °C 1011.3 hPa NE 7.6 km/h 9.5 km/h 80% 0.0 mm CLR
22:34 18.6 °C 15.1 °C 1011.7 hPa NE 7.6 km/h 13.0 km/h 80% 0.0 mm CLR
22:39 18.5 °C 15.0 °C 1011.7 hPa NE 6.9 km/h 11.1 km/h 80% 0.0 mm CLR
22:44 18.5 °C 15.0 °C 1011.7 hPa NNE 6.9 km/h 13.0 km/h 80% 0.0 mm CLR
22:49 18.4 °C 15.1 °C 1011.8 hPa NE 8.7 km/h 14.8 km/h 81% 0.0 mm CLR
22:54 18.3 °C 15.0 °C 1011.8 hPa NE 8.7 km/h 11.9 km/h 81% 0.0 mm CLR
22:59 18.3 °C 15.0 °C 1011.8 hPa NNE 8.7 km/h 10.0 km/h 81% 0.0 mm CLR
23:04 18.3 °C 15.2 °C 1012.0 hPa NNE 8.7 km/h 14.8 km/h 82% 0.0 mm CLR
23:09 18.3 °C 15.2 °C 1012.0 hPa NE 9.5 km/h 14.8 km/h 82% 0.0 mm CLR
23:14 18.2 °C 15.1 °C 1012.0 hPa NE 9.5 km/h 13.0 km/h 82% 0.0 mm CLR
23:19 18.2 °C 15.1 °C 1012.1 hPa NNE 10.0 km/h 13.0 km/h 82% 0.0 mm CLR
23:24 18.2 °C 15.3 °C 1012.1 hPa NNE 10.0 km/h 16.7 km/h 83% 0.0 mm CLR
23:29 18.2 °C 15.3 °C 1012.1 hPa NNE 11.1 km/h 14.8 km/h 83% 0.0 mm CLR
23:34 18.2 °C 15.3 °C 1012.1 hPa ENE 11.1 km/h 11.1 km/h 83% 0.0 mm CLR
23:39 18.1 °C 15.2 °C 1012.1 hPa NE 9.5 km/h 13.0 km/h 83% 0.0 mm CLR
23:44 18.1 °C 15.2 °C 1012.1 hPa NE 9.5 km/h 13.0 km/h 83% 0.0 mm CLR
23:49 18.2 °C 15.3 °C 1012.2 hPa NE 8.7 km/h 14.8 km/h 83% 0.0 mm CLR
23:54 18.2 °C 15.1 °C 1012.2 hPa NE 8.7 km/h 11.1 km/h 82% 0.0 mm CLR
23:59 18.2 °C 15.3 °C 1012.2 hPa North 8.7 km/h 13.0 km/h 83% 0.0 mm CLR
Murcia-Puente Tocinos, España
Compliments of Weather Underground - 2.75 mb

La estación de MeteoMurcia.com, publica sus datos en los siguientes proyectos:

Weather Underground PWS IMURCIAP2 Meteoclimatic www.awekas.at

W3Counter
Web Analytics